Time;durP1;ratioP1;P1;durP2;ratioP2;P2;SDS_P1;SDS_P2;PMS_P1;PMS_P2;Temp;Humidity;BMP_temperature;BMP_pressure;BME280_temperature;BME280_humidity;BME280_pressure;Samples;Min_cycle;Max_cycle;Signal;HPM_P1;HPM_P2
2023/06/13 00:01:37;;;;;;;;;;;;;;;;;;5067304;28;19975;-63
2023/06/13 00:04:03;;;;;;;;;;;;;;;;;;5068863;28;19916;-62
2023/06/13 00:06:29;;;;;;;;;;;;;;;;;;5069501;28;19917;-60
2023/06/13 00:08:56;;;;;;;;;;;;;;;;;;5068738;28;20436;-62
2023/06/13 00:11:22;;;;;;;;;;;;;;;;;;5072187;28;19912;-62
2023/06/13 00:13:48;;;;;;;;;;;;;;;;;;5074747;28;19956;-62
2023/06/13 00:16:15;;;;;;;;;;;;;;;;;;5070536;28;20306;-62
2023/06/13 00:18:41;;;;;;;;;;;;;;;;;;5073168;28;20333;-61
2023/06/13 00:21:07;;;;;;;;;;;;;;;;;;5073618;28;19958;-61
2023/06/13 00:23:33;;;;;;;;;;;;;;;;;;5070198;28;20323;-62
2023/06/13 00:25:59;;;;;;;;;;;;;;;;;;5071673;28;19926;-62
2023/06/13 00:28:25;;;;;;;;;;;;;;;;;;5072399;28;19952;-62
2023/06/13 00:30:51;;;;;;;;;;;;;;;;;;5066966;28;19934;-62
2023/06/13 00:33:17;;;;;;;;;;;;;;;;;;5073949;28;19978;-61
2023/06/13 00:35:43;;;;;;;;;;;;;;;;;;5072520;28;20007;-63
2023/06/13 00:38:10;;;;;;;;;;;;;;;;;;5059156;28;19939;-62
2023/06/13 00:40:36;;;;;;;;;;;;;;;;;;5072854;28;20004;-62
2023/06/13 00:43:02;;;;;;;;;;;;;;;;;;5067708;28;20065;-61
2023/06/13 00:45:28;;;;;;;;;;;;;;;;;;5064984;28;19916;-61
2023/06/13 00:47:55;;;;;;;;;;;;;;;;;;5074667;28;19999;-62
2023/06/13 00:50:21;;;;;;;;;;;;;;;;;;5072579;28;19920;-61
2023/06/13 00:52:47;;;;;;;;;;;;;;;;;;5072819;28;20007;-61
2023/06/13 00:55:14;;;;;;;;;;;;;;;;;;5061810;28;20411;-61
2023/06/13 00:57:40;;;;;;;;;;;;;;;;;;5070109;28;19964;-61
2023/06/13 01:00:05;;;;;;;;;;;;;;;;;;5071256;28;20360;-62
2023/06/13 01:02:33;;;;;;;;;;;;;;;;;;5072416;28;20007;-62
2023/06/13 01:05:02;;;;;;;;;;;;;;;;;;5072319;28;19956;-61
2023/06/13 01:07:29;;;;;;;;;;;;;;;;;;5071766;28;20341;-61
2023/06/13 01:09:55;;;;;;;;;;;;;;;;;;5067076;28;19916;-62
2023/06/13 01:12:21;;;;;;;;;;;;;;;;;;5072486;28;20031;-61
2023/06/13 01:14:47;;;;;;;;;;;;;;;;;;5070122;28;19919;-62
2023/06/13 01:17:14;;;;;;;;;;;;;;;;;;5072645;28;19942;-61
2023/06/13 01:19:41;;;;;;;;;;;;;;;;;;5068708;28;19916;-62
2023/06/13 01:22:07;;;;;;;;;;;;;;;;;;5072487;28;19919;-61
2023/06/13 01:24:34;;;;;;;;;;;;;;;;;;5069632;28;19920;-62
2023/06/13 01:27:00;;;;;;;;;;;;;;;;;;5072382;28;19920;-61
2023/06/13 01:29:26;;;;;;;;;;;;;;;;;;5068317;28;19945;-62
2023/06/13 01:31:52;;;;;;;;;;;;;;;;;;5063602;28;19956;-62
2023/06/13 01:34:18;;;;;;;;;;;;;;;;;;5066529;28;19913;-62
2023/06/13 01:36:44;;;;;;;;;;;;;;;;;;5064970;28;19985;-62
2023/06/13 01:39:10;;;;;;;;;;;;;;;;;;5072632;28;19927;-61
2023/06/13 01:41:36;;;;;;;;;;;;;;;;;;5072387;28;19989;-61
2023/06/13 01:44:02;;;;;;;;;;;;;;;;;;5069372;28;19912;-61
2023/06/13 01:46:27;;;;;;;;;;;;;;;;;;5070198;28;20303;-62
2023/06/13 01:48:53;;;;;;;;;;;;;;;;;;5069344;28;19920;-62
2023/06/13 01:51:19;;;;;;;;;;;;;;;;;;5064819;28;19917;-61
2023/06/13 01:53:45;;;;;;;;;;;;;;;;;;5062026;28;20360;-62
2023/06/13 01:56:11;;;;;;;;;;;;;;;;;;5068203;28;19955;-61
2023/06/13 01:58:37;;;;;;;;;;;;;;;;;;5066900;28;20420;-61
2023/06/13 02:01:04;;;;;;;;;;;;;;;;;;5065586;28;19952;-62
2023/06/13 02:03:30;;;;;;;;;;;;;;;;;;5072428;28;20395;-62
2023/06/13 02:05:56;;;;;;;;;;;;;;;;;;5067144;28;19951;-62
2023/06/13 02:08:22;;;;;;;;;;;;;;;;;;5070887;28;19971;-62
2023/06/13 02:10:48;;;;;;;;;;;;;;;;;;5064085;28;19963;-62
2023/06/13 02:13:14;;;;;;;;;;;;;;;;;;5069573;28;20356;-62
2023/06/13 02:15:40;;;;;;;;;;;;;;;;;;5072855;28;20014;-61
2023/06/13 02:18:06;;;;;;;;;;;;;;;;;;5070443;28;19927;-61
2023/06/13 02:20:33;;;;;;;;;;;;;;;;;;5068982;28;19908;-61
2023/06/13 02:23:01;;;;;;;;;;;;;;;;;;5071818;28;19974;-62
2023/06/13 02:25:27;;;;;;;;;;;;;;;;;;5060760;28;19912;-62
2023/06/13 02:27:53;;;;;;;;;;;;;;;;;;5059753;28;20006;-62
2023/06/13 02:30:19;;;;;;;;;;;;;;;;;;5070644;28;20316;-62
2023/06/13 02:32:46;;;;;;;;;;;;;;;;;;5070675;28;19917;-61
2023/06/13 02:35:12;;;;;;;;;;;;;;;;;;5069415;28;20521;-61
2023/06/13 02:37:38;;;;;;;;;;;;;;;;;;5070513;28;19920;-61
2023/06/13 02:40:10;;;;;;;;;;;;;;;;;;5068299;28;19912;-62
2023/06/13 02:42:36;;;;;;;;;;;;;;;;;;5077141;28;19919;-61
2023/06/13 02:45:03;;;;;;;;;;;;;;;;;;5064776;28;19913;-61
2023/06/13 02:47:29;;;;;;;;;;;;;;;;;;5068171;28;19969;-62
2023/06/13 02:49:55;;;;;;;;;;;;;;;;;;5066010;28;19913;-61
2023/06/13 02:52:21;;;;;;;;;;;;;;;;;;5060253;28;19969;-61
2023/06/13 02:54:47;;;;;;;;;;;;;;;;;;5070960;28;19908;-61
2023/06/13 02:57:13;;;;;;;;;;;;;;;;;;5063232;28;19923;-61
2023/06/13 02:59:39;;;;;;;;;;;;;;;;;;5069682;28;20361;-62
2023/06/13 03:02:05;;;;;;;;;;;;;;;;;;5065359;28;19920;-61
2023/06/13 03:04:32;;;;;;;;;;;;;;;;;;5061396;28;19948;-61
2023/06/13 03:07:00;;;;;;;;;;;;;;;;;;5063075;28;20284;-61
2023/06/13 03:09:25;;;;;;;;;;;;;;;;;;5071161;28;20399;-61
2023/06/13 03:11:51;;;;;;;;;;;;;;;;;;5070085;28;19917;-62
2023/06/13 03:14:17;;;;;;;;;;;;;;;;;;5070501;28;20056;-61
2023/06/13 03:16:43;;;;;;;;;;;;;;;;;;5066129;28;19917;-61
2023/06/13 03:19:10;;;;;;;;;;;;;;;;;;5067052;28;20014;-61
2023/06/13 03:21:36;;;;;;;;;;;;;;;;;;5069341;28;19916;-62
2023/06/13 03:24:02;;;;;;;;;;;;;;;;;;5070566;28;19999;-62
2023/06/13 03:26:28;;;;;;;;;;;;;;;;;;5069715;28;19939;-61
2023/06/13 03:28:54;;;;;;;;;;;;;;;;;;5049575;28;19916;-62
2023/06/13 03:31:20;;;;;;;;;;;;;;;;;;5069935;28;19916;-62
2023/06/13 03:33:46;;;;;;;;;;;;;;;;;;5067925;28;20026;-61
2023/06/13 03:36:12;;;;;;;;;;;;;;;;;;5066861;28;20043;-62
2023/06/13 03:38:38;;;;;;;;;;;;;;;;;;5074058;28;20284;-61
2023/06/13 03:41:04;;;;;;;;;;;;;;;;;;5073849;28;19912;-61
2023/06/13 03:43:30;;;;;;;;;;;;;;;;;;5070640;28;19939;-61
2023/06/13 03:45:56;;;;;;;;;;;;;;;;;;5073191;28;19913;-61
2023/06/13 03:48:22;;;;;;;;;;;;;;;;;;5074454;28;19959;-61
2023/06/13 03:50:48;;;;;;;;;;;;;;;;;;5073630;28;19951;-61
2023/06/13 03:53:14;;;;;;;;;;;;;;;;;;5074566;28;19912;-61
2023/06/13 03:55:40;;;;;;;;;;;;;;;;;;5072770;28;20345;-62
2023/06/13 03:58:06;;;;;;;;;;;;;;;;;;5071702;28;19917;-61
2023/06/13 04:00:39;;;;;;;;;;;;;;;;;;5074742;28;19968;-61
2023/06/13 04:03:05;;;;;;;;;;;;;;;;;;5064747;28;19927;-61
2023/06/13 04:05:31;;;;;;;;;;;;;;;;;;5068359;28;19960;-62
2023/06/13 04:07:57;;;;;;;;;;;;;;;;;;5068066;28;19923;-61
2023/06/13 04:10:23;;;;;;;;;;;;;;;;;;5070973;28;20011;-61
2023/06/13 04:12:48;;;;;;;;;;;;;;;;;;5074747;28;19999;-61
2023/06/13 04:15:15;;;;;;;;;;;;;;;;;;5072255;28;19917;-61
2023/06/13 04:17:41;;;;;;;;;;;;;;;;;;5071232;28;19931;-61
2023/06/13 04:20:08;;;;;;;;;;;;;;;;;;5072583;28;19916;-61
2023/06/13 04:22:35;;;;;;;;;;;;;;;;;;5061078;28;19912;-62
2023/06/13 04:25:01;;;;;;;;;;;;;;;;;;5058195;28;19917;-61
2023/06/13 04:27:31;;;;;;;;;;;;;;;;;;5063150;28;19912;-61
2023/06/13 04:29:57;;;;;;;;;;;;;;;;;;5069439;28;19916;-62
2023/06/13 04:32:28;;;;;;;;;;;;;;;;;;5067727;28;20327;-61
2023/06/13 04:34:55;;;;;;;;;;;;;;;;;;5058564;28;19912;-61
2023/06/13 04:37:25;;;;;;;;;;;;;;;;;;5072000;28;19917;-61
2023/06/13 04:39:51;;;;;;;;;;;;;;;;;;5079420;28;20261;-61
2023/06/13 04:42:21;;;;;;;;;;;;;;;;;;5071107;28;19913;-61
2023/06/13 04:44:48;;;;;;;;;;;;;;;;;;5067561;28;20403;-61
2023/06/13 04:47:14;;;;;;;;;;;;;;;;;;5070369;28;20011;-61
2023/06/13 04:49:40;;;;;;;;;;;;;;;;;;5068090;28;20018;-62
2023/06/13 04:52:06;;;;;;;;;;;;;;;;;;5075856;28;19996;-62
2023/06/13 04:54:33;;;;;;;;;;;;;;;;;;5062271;28;19966;-61
2023/06/13 04:56:59;;;;;;;;;;;;;;;;;;5064550;28;19920;-61
2023/06/13 04:59:25;;;;;;;;;;;;;;;;;;5069298;28;21961;-61
2023/06/13 05:01:51;;;;;;;;;;;;;;;;;;5063998;28;19912;-62
2023/06/13 05:04:17;;;;;;;;;;;;;;;;;;5071857;28;19952;-62
2023/06/13 05:06:43;;;;;;;;;;;;;;;;;;5065130;28;19912;-61
2023/06/13 05:09:10;;;;;;;;;;;;;;;;;;5063917;28;19919;-61
2023/06/13 05:11:36;;;;;;;;;;;;;;;;;;5067762;28;20358;-61
2023/06/13 05:14:01;;;;;;;;;;;;;;;;;;5065505;28;19963;-61
2023/06/13 05:16:29;;;;;;;;;;;;;;;;;;5069327;28;19962;-62
2023/06/13 05:19:00;;;;;;;;;;;;;;;;;;5064893;28;19928;-62
2023/06/13 05:21:26;;;;;;;;;;;;;;;;;;5060769;28;20440;-62
2023/06/13 05:23:53;;;;;;;;;;;;;;;;;;5073617;28;19913;-61
2023/06/13 05:26:20;;;;;;;;;;;;;;;;;;5070774;28;19983;-62
2023/06/13 05:28:46;;;;;;;;;;;;;;;;;;5069088;28;20007;-62
2023/06/13 05:31:12;;;;;;;;;;;;;;;;;;5067599;28;19940;-61
2023/06/13 05:33:38;;;;;;;;;;;;;;;;;;5066754;28;20414;-62
2023/06/13 05:36:04;;;;;;;;;;;;;;;;;;5059638;28;19956;-62
2023/06/13 05:38:31;;;;;;;;;;;;;;;;;;5070225;28;19968;-62
2023/06/13 05:40:57;;;;;;;;;;;;;;;;;;5067496;28;19922;-62
2023/06/13 05:43:23;;;;;;;;;;;;;;;;;;5065489;28;19920;-62
2023/06/13 05:45:49;;;;;;;;;;;;;;;;;;5057881;28;19960;-62
2023/06/13 05:48:15;;;;;;;;;;;;;;;;;;5055850;28;19909;-62
2023/06/13 05:50:41;;;;;;;;;;;;;;;;;;5062240;28;20575;-62
2023/06/13 05:53:06;;;;;;;;;;;;;;;;;;5060147;28;19959;-62
2023/06/13 05:55:32;;;;;;;;;;;;;;;;;;5069965;28;19916;-62
2023/06/13 05:57:58;;;;;;;;;;;;;;;;;;5058943;28;20062;-62
2023/06/13 06:00:25;;;;;;;;;;;;;;;;;;5059075;28;19913;-62
2023/06/13 06:02:52;;;;;;;;;;;;;;;;;;5068086;28;20427;-62
2023/06/13 06:05:19;;;;;;;;;;;;;;;;;;5066327;28;19981;-62
2023/06/13 06:07:45;;;;;;;;;;;;;;;;;;5058748;28;19920;-62
2023/06/13 06:10:11;;;;;;;;;;;;;;;;;;5063010;28;19916;-62
2023/06/13 06:12:37;;;;;;;;;;;;;;;;;;5052847;28;19955;-63
2023/06/13 06:15:03;;;;;;;;;;;;;;;;;;5068133;28;19944;-62
2023/06/13 06:17:29;;;;;;;;;;;;;;;;;;5057206;28;20011;-62
2023/06/13 06:19:54;;;;;;;;;;;;;;;;;;5070690;28;20307;-62
2023/06/13 06:22:20;;;;;;;;;;;;;;;;;;5055479;28;20003;-62
2023/06/13 06:24:46;;;;;;;;;;;;;;;;;;5068215;28;19916;-62
2023/06/13 06:27:12;;;;;;;;;;;;;;;;;;5069177;28;20284;-62
2023/06/13 06:29:39;;;;;;;;;;;;;;;;;;5063255;28;19917;-62
2023/06/13 06:32:05;;;;;;;;;;;;;;;;;;5068317;28;19979;-62
2023/06/13 06:34:30;;;;;;;;;;;;;;;;;;5053321;28;19919;-62
2023/06/13 06:36:56;;;;;;;;;;;;;;;;;;5054574;28;20053;-63
2023/06/13 06:39:22;;;;;;;;;;;;;;;;;;5065358;28;19919;-63
2023/06/13 06:41:48;;;;;;;;;;;;;;;;;;5070335;28;19920;-62
2023/06/13 06:44:14;;;;;;;;;;;;;;;;;;5069555;28;19959;-62
2023/06/13 06:46:40;;;;;;;;;;;;;;;;;;5067831;28;19921;-62
2023/06/13 06:49:07;;;;;;;;;;;;;;;;;;5072067;28;19919;-62
2023/06/13 06:51:33;;;;;;;;;;;;;;;;;;5070189;28;19917;-62
2023/06/13 06:53:59;;;;;;;;;;;;;;;;;;5072083;28;19909;-62
2023/06/13 06:56:25;;;;;;;;;;;;;;;;;;5071423;28;19920;-62
2023/06/13 06:58:51;;;;;;;;;;;;;;;;;;5067922;28;19921;-62
2023/06/13 07:01:18;;;;;;;;;;;;;;;;;;5068691;28;20372;-62
2023/06/13 07:03:44;;;;;;;;;;;;;;;;;;5064562;28;19956;-63
2023/06/13 07:06:11;;;;;;;;;;;;;;;;;;5070194;28;19967;-63
2023/06/13 07:08:37;;;;;;;;;;;;;;;;;;5070753;28;20269;-63
2023/06/13 07:11:03;;;;;;;;;;;;;;;;;;5070839;28;19950;-63
2023/06/13 07:13:29;;;;;;;;;;;;;;;;;;5071524;28;20011;-63
2023/06/13 07:15:55;;;;;;;;;;;;;;;;;;5070898;28;19920;-62
2023/06/13 07:18:21;;;;;;;;;;;;;;;;;;5064043;28;19924;-63
2023/06/13 07:20:47;;;;;;;;;;;;;;;;;;5068321;28;19962;-64
2023/06/13 07:23:12;;;;;;;;;;;;;;;;;;5067011;28;19956;-64
2023/06/13 07:25:41;;;;;;;;;;;;;;;;;;5070950;28;19919;-64
2023/06/13 07:28:07;;;;;;;;;;;;;;;;;;5071476;28;19908;-64
2023/06/13 07:30:33;;;;;;;;;;;;;;;;;;5070990;28;20415;-63
2023/06/13 07:32:59;;;;;;;;;;;;;;;;;;5071638;28;20321;-64
2023/06/13 07:35:25;;;;;;;;;;;;;;;;;;5069742;28;19912;-64
2023/06/13 07:37:52;;;;;;;;;;;;;;;;;;5070995;28;20363;-64
2023/06/13 07:40:19;;;;;;;;;;;;;;;;;;5055644;28;20012;-64
2023/06/13 07:42:45;;;;;;;;;;;;;;;;;;5062296;28;19909;-64
2023/06/13 07:45:11;;;;;;;;;;;;;;;;;;5069621;28;19963;-63
2023/06/13 07:47:37;;;;;;;;;;;;;;;;;;5059109;28;19999;-64
2023/06/13 07:50:02;;;;;;;;;;;;;;;;;;5070904;28;19913;-63
2023/06/13 07:52:28;;;;;;;;;;;;;;;;;;5065259;28;20025;-63
2023/06/13 07:54:54;;;;;;;;;;;;;;;;;;5067032;28;19912;-64
2023/06/13 07:57:21;;;;;;;;;;;;;;;;;;5069638;28;20396;-63
2023/06/13 07:59:46;;;;;;;;;;;;;;;;;;5068887;28;20009;-63
2023/06/13 08:02:12;;;;;;;;;;;;;;;;;;5064029;28;20012;-61
2023/06/13 08:04:38;;;;;;;;;;;;;;;;;;5068751;28;20348;-64
2023/06/13 08:07:04;;;;;;;;;;;;;;;;;;5070901;28;19943;-64
2023/06/13 08:09:30;;;;;;;;;;;;;;;;;;5068135;28;19913;-64
2023/06/13 08:11:56;;;;;;;;;;;;;;;;;;5069570;28;20387;-63
2023/06/13 08:14:22;;;;;;;;;;;;;;;;;;5067507;28;19944;-63
2023/06/13 08:16:48;;;;;;;;;;;;;;;;;;5071070;28;20391;-63
2023/06/13 08:19:14;;;;;;;;;;;;;;;;;;5067345;28;19957;-63
2023/06/13 08:21:40;;;;;;;;;;;;;;;;;;5071025;28;20388;-62
2023/06/13 08:24:06;;;;;;;;;;;;;;;;;;5070884;28;19912;-64
2023/06/13 08:26:32;;;;;;;;;;;;;;;;;;5070620;28;20007;-65
2023/06/13 08:28:58;;;;;;;;;;;;;;;;;;5071102;28;19954;-63
2023/06/13 08:31:24;;;;;;;;;;;;;;;;;;5071235;28;19908;-62
2023/06/13 08:33:50;;;;;;;;;;;;;;;;;;5074623;28;20409;-64
2023/06/13 08:36:16;;;;;;;;;;;;;;;;;;5072859;28;20375;-61
2023/06/13 08:38:42;;;;;;;;;;;;;;;;;;5054721;28;19942;-65
2023/06/13 08:41:08;;;;;;;;;;;;;;;;;;5066861;28;20027;-62
2023/06/13 08:43:34;;;;;;;;;;;;;;;;;;5064422;28;19934;-62
2023/06/13 08:46:00;;;;;;;;;;;;;;;;;;5074327;28;19914;-62
2023/06/13 08:48:27;;;;;;;;;;;;;;;;;;5067450;28;19912;-62
2023/06/13 08:50:53;;;;;;;;;;;;;;;;;;5067797;28;20002;-62
2023/06/13 08:53:19;;;;;;;;;;;;;;;;;;5070492;28;19956;-62
2023/06/13 08:55:45;;;;;;;;;;;;;;;;;;5056902;28;19912;-62
2023/06/13 08:58:11;;;;;;;;;;;;;;;;;;5058400;28;20368;-62
2023/06/13 09:00:37;;;;;;;;;;;;;;;;;;5073769;28;20402;-64
2023/06/13 09:03:03;;;;;;;;;;;;;;;;;;5071320;28;20391;-63
2023/06/13 09:05:30;;;;;;;;;;;;;;;;;;5073717;28;19913;-64
2023/06/13 09:07:56;;;;;;;;;;;;;;;;;;5064280;28;19916;-64
2023/06/13 09:10:22;;;;;;;;;;;;;;;;;;5063369;28;19927;-64
2023/06/13 09:12:51;;;;;;;;;;;;;;;;;;5071416;28;19912;-64
2023/06/13 09:15:17;;;;;;;;;;;;;;;;;;5060186;28;19913;-64
2023/06/13 09:17:43;;;;;;;;;;;;;;;;;;5064621;28;20005;-64
2023/06/13 09:20:09;;;;;;;;;;;;;;;;;;5054269;28;19908;-65
2023/06/13 09:22:36;;;;;;;;;;;;;;;;;;5064926;28;19913;-64
2023/06/13 09:25:04;;;;;;;;;;;;;;;;;;5067357;28;20390;-64
2023/06/13 09:27:30;;;;;;;;;;;;;;;;;;5068945;28;19983;-64
2023/06/13 09:29:55;;;;;;;;;;;;;;;;;;5073004;28;19920;-64
2023/06/13 09:32:22;;;;;;;;;;;;;;;;;;5072800;28;20350;-64
2023/06/13 09:34:48;;;;;;;;;;;;;;;;;;5073660;28;20277;-63
2023/06/13 09:37:15;;;;;;;;;;;;;;;;;;5069333;28;19971;-64
2023/06/13 09:39:41;;;;;;;;;;;;;;;;;;5073507;28;19924;-64
2023/06/13 09:42:07;;;;;;;;;;;;;;;;;;5068586;28;20364;-64
2023/06/13 09:44:33;;;;;;;;;;;;;;;;;;5079385;28;20003;-64
2023/06/13 09:47:00;;;;;;;;;;;;;;;;;;5093548;28;19912;-63
2023/06/13 09:49:26;;;;;;;;;;;;;;;;;;5082020;28;19991;-63
2023/06/13 09:51:52;;;;;;;;;;;;;;;;;;5067659;28;20012;-63
2023/06/13 09:54:18;;;;;;;;;;;;;;;;;;5073176;28;20280;-63
2023/06/13 09:56:44;;;;;;;;;;;;;;;;;;5071100;28;19912;-64
2023/06/13 09:59:10;;;;;;;;;;;;;;;;;;5072582;28;19931;-64
2023/06/13 10:01:38;;;;;;;;;;;;;;;;;;5072751;28;19919;-64
2023/06/13 10:04:05;;;;;;;;;;;;;;;;;;5072874;28;19909;-63
2023/06/13 10:06:31;;;;;;;;;;;;;;;;;;5068740;28;19921;-63
2023/06/13 10:08:57;;;;;;;;;;;;;;;;;;5069389;28;19913;-63
2023/06/13 10:11:23;;;;;;;;;;;;;;;;;;5070037;28;19981;-64
2023/06/13 10:13:49;;;;;;;;;;;;;;;;;;5070047;28;20384;-64
2023/06/13 10:16:15;;;;;;;;;;;;;;;;;;5066578;28;19961;-65
2023/06/13 10:18:41;;;;;;;;;;;;;;;;;;5072442;28;19924;-64
2023/06/13 10:21:07;;;;;;;;;;;;;;;;;;5070802;28;20326;-64
2023/06/13 10:23:33;;;;;;;;;;;;;;;;;;5069143;28;19993;-64
2023/06/13 10:25:59;;;;;;;;;;;;;;;;;;5073600;28;19999;-64
2023/06/13 10:28:25;;;;;;;;;;;;;;;;;;5070571;28;19923;-64
2023/06/13 10:30:51;;;;;;;;;;;;;;;;;;5069744;28;19959;-62
2023/06/13 10:33:17;;;;;;;;;;;;;;;;;;5068460;28;20294;-62
2023/06/13 10:35:44;;;;;;;;;;;;;;;;;;5071070;28;19913;-61
2023/06/13 10:38:12;;;;;;;;;;;;;;;;;;5075011;28;19916;-59
2023/06/13 10:40:38;;;;;;;;;;;;;;;;;;5083117;28;19912;-62
2023/06/13 10:43:03;;;;;;;;;;;;;;;;;;5065540;28;20006;-62
2023/06/13 10:45:29;;;;;;;;;;;;;;;;;;5067548;28;19959;-62
2023/06/13 10:47:55;;;;;;;;;;;;;;;;;;5068360;28;19940;-63
2023/06/13 10:50:21;;;;;;;;;;;;;;;;;;5058052;28;19955;-63
2023/06/13 10:52:50;;;;;;;;;;;;;;;;;;5068329;28;19938;-63
2023/06/13 10:55:16;;;;;;;;;;;;;;;;;;5070511;28;19996;-62
2023/06/13 10:57:42;;;;;;;;;;;;;;;;;;5069586;28;19956;-62
2023/06/13 11:00:08;;;;;;;;;;;;;;;;;;5063913;28;20384;-62
2023/06/13 11:02:34;;;;;;;;;;;;;;;;;;5064484;28;19931;-61
2023/06/13 11:05:00;;;;;;;;;;;;;;;;;;5069473;28;19999;-62
2023/06/13 11:07:26;;;;;;;;;;;;;;;;;;5069402;28;19947;-62
2023/06/13 11:09:52;;;;;;;;;;;;;;;;;;5069448;28;19924;-62
2023/06/13 11:12:18;;;;;;;;;;;;;;;;;;5072671;28;20350;-62
2023/06/13 11:14:44;;;;;;;;;;;;;;;;;;5077601;28;19947;-62
2023/06/13 11:17:10;;;;;;;;;;;;;;;;;;5064803;28;19978;-62
2023/06/13 11:19:36;;;;;;;;;;;;;;;;;;5068613;28;19971;-62
2023/06/13 11:22:02;;;;;;;;;;;;;;;;;;5066375;28;20007;-62
2023/06/13 11:24:28;;;;;;;;;;;;;;;;;;5067224;28;19951;-62
2023/06/13 11:26:54;;;;;;;;;;;;;;;;;;5072855;28;19955;-62
2023/06/13 11:29:20;;;;;;;;;;;;;;;;;;5068265;28;20338;-61
2023/06/13 11:31:46;;;;;;;;;;;;;;;;;;5074106;28;19919;-62
2023/06/13 11:34:12;;;;;;;;;;;;;;;;;;5066528;28;19960;-61
2023/06/13 11:36:38;;;;;;;;;;;;;;;;;;5060412;28;19917;-62
2023/06/13 11:39:04;;;;;;;;;;;;;;;;;;5069876;28;19959;-62
2023/06/13 11:41:30;;;;;;;;;;;;;;;;;;5068192;28;19958;-59
2023/06/13 11:43:56;;;;;;;;;;;;;;;;;;5067126;28;19920;-58
2023/06/13 11:46:22;;;;;;;;;;;;;;;;;;5066709;28;20399;-59
2023/06/13 11:48:48;;;;;;;;;;;;;;;;;;5066730;28;19960;-59
2023/06/13 11:51:14;;;;;;;;;;;;;;;;;;5068438;28;19923;-62
2023/06/13 11:53:41;;;;;;;;;;;;;;;;;;5061838;28;20383;-62
2023/06/13 11:56:07;;;;;;;;;;;;;;;;;;5069021;28;20023;-59
2023/06/13 11:58:34;;;;;;;;;;;;;;;;;;5059670;28;20003;-62
2023/06/13 12:01:00;;;;;;;;;;;;;;;;;;5063163;28;19912;-60
2023/06/13 12:03:26;;;;;;;;;;;;;;;;;;5063387;28;20451;-59
2023/06/13 12:05:56;;;;;;;;;;;;;;;;;;5062704;28;20391;-60
2023/06/13 12:08:22;;;;;;;;;;;;;;;;;;5071212;28;20344;-59
2023/06/13 12:10:48;;;;;;;;;;;;;;;;;;5072079;28;19954;-59
2023/06/13 12:13:14;;;;;;;;;;;;;;;;;;5068475;28;19916;-60
2023/06/13 12:15:40;;;;;;;;;;;;;;;;;;5064982;28;20356;-59
2023/06/13 12:18:05;;;;;;;;;;;;;;;;;;5081093;28;19960;-59
2023/06/13 12:20:36;;;;;;;;;;;;;;;;;;5080849;28;19978;-59
2023/06/13 12:23:02;;;;;;;;;;;;;;;;;;5065508;28;19916;-59
2023/06/13 12:25:28;;;;;;;;;;;;;;;;;;5069210;28;19924;-60
2023/06/13 12:27:55;;;;;;;;;;;;;;;;;;5064821;28;19975;-63
2023/06/13 12:30:21;;;;;;;;;;;;;;;;;;5065676;28;19918;-60
2023/06/13 12:32:48;;;;;;;;;;;;;;;;;;5073550;28;19955;-60
2023/06/13 12:35:14;;;;;;;;;;;;;;;;;;5067204;28;19912;-60
2023/06/13 12:37:40;;;;;;;;;;;;;;;;;;5063959;28;19948;-58
2023/06/13 12:40:15;;;;;;;;;;;;;;;;;;5062552;28;19916;-60
2023/06/13 12:42:42;;;;;;;;;;;;;;;;;;5067054;28;19931;-60
2023/06/13 12:45:08;;;;;;;;;;;;;;;;;;5068070;28;19916;-60
2023/06/13 12:47:34;;;;;;;;;;;;;;;;;;5065492;28;20001;-60
2023/06/13 12:50:00;;;;;;;;;;;;;;;;;;5062518;28;19920;-60
2023/06/13 12:52:26;;;;;;;;;;;;;;;;;;5068147;28;19917;-60
2023/06/13 12:54:52;;;;;;;;;;;;;;;;;;5071850;28;19956;-60
2023/06/13 12:57:19;;;;;;;;;;;;;;;;;;5070809;28;20007;-60
2023/06/13 12:59:46;;;;;;;;;;;;;;;;;;5070671;28;20011;-61
2023/06/13 13:02:11;;;;;;;;;;;;;;;;;;5062336;28;19924;-61
2023/06/13 13:04:37;;;;;;;;;;;;;;;;;;5070650;28;19966;-60
2023/06/13 13:07:03;;;;;;;;;;;;;;;;;;5076210;28;20069;-62
2023/06/13 13:09:29;;;;;;;;;;;;;;;;;;5072685;28;19912;-61
2023/06/13 13:11:55;;;;;;;;;;;;;;;;;;5071366;28;20245;-62
2023/06/13 13:14:21;;;;;;;;;;;;;;;;;;5073048;28;19937;-62
2023/06/13 13:16:47;;;;;;;;;;;;;;;;;;5073956;28;19916;-62
2023/06/13 13:19:13;;;;;;;;;;;;;;;;;;5070086;28;20373;-62
2023/06/13 13:21:40;;;;;;;;;;;;;;;;;;5066487;28;20012;-62
2023/06/13 13:24:06;;;;;;;;;;;;;;;;;;5071521;28;19924;-63
2023/06/13 13:26:32;;;;;;;;;;;;;;;;;;5088858;28;19966;-63
2023/06/13 13:28:58;;;;;;;;;;;;;;;;;;5078076;28;19966;-61
2023/06/13 13:31:24;;;;;;;;;;;;;;;;;;5071702;28;19940;-61
2023/06/13 13:33:50;;;;;;;;;;;;;;;;;;5069846;28;20392;-62
2023/06/13 13:36:16;;;;;;;;;;;;;;;;;;5075187;28;20283;-62
2023/06/13 13:38:42;;;;;;;;;;;;;;;;;;5059603;28;19956;-61
2023/06/13 13:41:08;;;;;;;;;;;;;;;;;;5066290;28;19923;-61
2023/06/13 13:43:34;;;;;;;;;;;;;;;;;;5073668;28;20401;-62
2023/06/13 13:46:00;;;;;;;;;;;;;;;;;;5075418;28;19970;-61
2023/06/13 13:48:26;;;;;;;;;;;;;;;;;;5072529;28;20376;-61
2023/06/13 13:50:52;;;;;;;;;;;;;;;;;;5072101;28;22048;-61
2023/06/13 13:53:18;;;;;;;;;;;;;;;;;;5070710;28;19935;-61
2023/06/13 13:55:45;;;;;;;;;;;;;;;;;;5063791;28;19908;-61
2023/06/13 13:58:11;;;;;;;;;;;;;;;;;;5076592;28;19924;-61
2023/06/13 14:00:37;;;;;;;;;;;;;;;;;;5068077;28;20011;-61
2023/06/13 14:03:03;;;;;;;;;;;;;;;;;;5067931;28;20066;-61
2023/06/13 14:05:29;;;;;;;;;;;;;;;;;;5043820;28;19942;-62
2023/06/13 14:07:55;;;;;;;;;;;;;;;;;;5066818;28;19958;-61
2023/06/13 14:10:20;;;;;;;;;;;;;;;;;;5060346;28;19920;-61
2023/06/13 14:12:46;;;;;;;;;;;;;;;;;;5068435;28;20404;-61
2023/06/13 14:15:12;;;;;;;;;;;;;;;;;;5067037;28;19912;-61
2023/06/13 14:17:38;;;;;;;;;;;;;;;;;;5065380;28;19971;-61
2023/06/13 14:20:04;;;;;;;;;;;;;;;;;;5065006;28;19978;-61
2023/06/13 14:22:30;;;;;;;;;;;;;;;;;;5069382;28;19978;-61
2023/06/13 14:24:56;;;;;;;;;;;;;;;;;;5068426;28;20023;-61
2023/06/13 14:27:22;;;;;;;;;;;;;;;;;;5068781;28;19919;-61
2023/06/13 14:29:48;;;;;;;;;;;;;;;;;;5066724;28;19974;-61
2023/06/13 14:32:14;;;;;;;;;;;;;;;;;;5068911;28;19927;-61
2023/06/13 14:34:40;;;;;;;;;;;;;;;;;;5072777;28;19912;-61
2023/06/13 14:37:06;;;;;;;;;;;;;;;;;;5046585;28;19952;-61
2023/06/13 14:39:32;;;;;;;;;;;;;;;;;;5066338;28;20296;-61
2023/06/13 14:41:58;;;;;;;;;;;;;;;;;;5070442;28;19920;-61
2023/06/13 14:44:24;;;;;;;;;;;;;;;;;;5063957;28;20061;-61
2023/06/13 14:46:50;;;;;;;;;;;;;;;;;;5069578;28;19943;-61
2023/06/13 14:49:16;;;;;;;;;;;;;;;;;;5052205;28;20380;-61
2023/06/13 14:51:42;;;;;;;;;;;;;;;;;;5069715;28;19967;-60
2023/06/13 14:54:08;;;;;;;;;;;;;;;;;;5067270;28;19912;-60
2023/06/13 14:56:33;;;;;;;;;;;;;;;;;;5070290;28;19949;-59
2023/06/13 14:58:59;;;;;;;;;;;;;;;;;;5075378;28;19955;-60
2023/06/13 15:01:25;;;;;;;;;;;;;;;;;;5075148;28;19918;-60
2023/06/13 15:03:52;;;;;;;;;;;;;;;;;;5076849;28;19947;-60
2023/06/13 15:06:18;;;;;;;;;;;;;;;;;;5072467;28;19920;-61
2023/06/13 15:08:44;;;;;;;;;;;;;;;;;;5069033;28;19920;-60
2023/06/13 15:11:10;;;;;;;;;;;;;;;;;;5069972;28;19916;-60
2023/06/13 15:13:36;;;;;;;;;;;;;;;;;;5071118;28;20370;-60
2023/06/13 15:16:02;;;;;;;;;;;;;;;;;;5070513;28;19974;-60
2023/06/13 15:18:32;;;;;;;;;;;;;;;;;;5072066;28;19978;-60
2023/06/13 15:20:58;;;;;;;;;;;;;;;;;;5067597;28;19916;-59
2023/06/13 15:23:25;;;;;;;;;;;;;;;;;;5069389;28;19912;-60
2023/06/13 15:25:51;;;;;;;;;;;;;;;;;;5065278;28;19916;-59
2023/06/13 15:28:17;;;;;;;;;;;;;;;;;;5078972;28;20339;-60
2023/06/13 15:30:43;;;;;;;;;;;;;;;;;;5059829;28;20004;-62
2023/06/13 15:33:09;;;;;;;;;;;;;;;;;;5061572;28;19970;-62
2023/06/13 15:35:35;;;;;;;;;;;;;;;;;;5062728;28;19924;-62
2023/06/13 15:38:01;;;;;;;;;;;;;;;;;;5072892;28;19959;-60
2023/06/13 15:40:27;;;;;;;;;;;;;;;;;;5061481;28;19943;-59
2023/06/13 15:42:53;;;;;;;;;;;;;;;;;;5064259;28;19916;-59
2023/06/13 15:45:18;;;;;;;;;;;;;;;;;;5068004;28;19962;-62
2023/06/13 15:47:44;;;;;;;;;;;;;;;;;;5068805;28;19924;-62
2023/06/13 15:50:10;;;;;;;;;;;;;;;;;;5069354;28;20009;-62
2023/06/13 15:52:36;;;;;;;;;;;;;;;;;;5057474;28;20011;-62
2023/06/13 15:55:02;;;;;;;;;;;;;;;;;;5063953;28;20343;-62
2023/06/13 15:57:28;;;;;;;;;;;;;;;;;;5063332;28;20411;-62
2023/06/13 15:59:54;;;;;;;;;;;;;;;;;;5062965;28;19920;-62
2023/06/13 16:02:21;;;;;;;;;;;;;;;;;;5066675;28;19952;-63
2023/06/13 16:04:46;;;;;;;;;;;;;;;;;;5064996;28;19913;-62
2023/06/13 16:07:12;;;;;;;;;;;;;;;;;;5064012;28;20007;-61
2023/06/13 16:09:38;;;;;;;;;;;;;;;;;;5069179;28;20334;-63
2023/06/13 16:12:05;;;;;;;;;;;;;;;;;;5070035;28;19959;-61
2023/06/13 16:14:31;;;;;;;;;;;;;;;;;;5071875;28;19912;-62
2023/06/13 16:16:57;;;;;;;;;;;;;;;;;;5054616;28;20004;-62
2023/06/13 16:19:23;;;;;;;;;;;;;;;;;;5054440;28;19921;-63
2023/06/13 16:21:49;;;;;;;;;;;;;;;;;;5062655;28;19955;-62
2023/06/13 16:24:15;;;;;;;;;;;;;;;;;;5066629;28;19956;-62
2023/06/13 16:26:41;;;;;;;;;;;;;;;;;;5064856;28;19916;-62
2023/06/13 16:29:07;;;;;;;;;;;;;;;;;;5060618;28;20280;-62
2023/06/13 16:31:33;;;;;;;;;;;;;;;;;;5056659;28;20364;-62
2023/06/13 16:33:59;;;;;;;;;;;;;;;;;;5061053;28;19919;-62
2023/06/13 16:36:25;;;;;;;;;;;;;;;;;;5065803;28;19916;-62
2023/06/13 16:38:51;;;;;;;;;;;;;;;;;;5058837;28;20675;-62